createdAt,value
2022-10-01T00:01:42.143Z,13.30
2022-10-01T00:05:44.257Z,13.30
2022-10-01T00:09:46.837Z,13.20
2022-10-01T00:13:49.439Z,13.10
2022-10-01T00:17:51.247Z,13.10
2022-10-01T00:21:53.077Z,14.50
2022-10-01T00:25:54.898Z,13.20
2022-10-01T00:29:56.835Z,13.20
2022-10-01T00:33:59.787Z,13.20
2022-10-01T00:38:01.609Z,13.30
2022-10-01T00:42:25.262Z,13.30
2022-10-01T00:46:39.528Z,13.20
2022-10-01T00:50:41.436Z,13.20
2022-10-01T00:54:50.864Z,13.10
2022-10-01T00:58:56.090Z,13.20
2022-10-01T01:02:57.969Z,13.20
2022-10-01T01:07:02.420Z,13.20
2022-10-01T01:11:23.505Z,13.10
2022-10-01T01:15:43.538Z,13.10
2022-10-01T01:20:04.471Z,12.90
2022-10-01T01:24:37.508Z,12.80
2022-10-01T01:28:47.997Z,12.70
2022-10-01T01:33:04.717Z,13.00
2022-10-01T01:37:14.394Z,13.00
2022-10-01T01:41:20.238Z,13.00
2022-10-01T01:45:28.812Z,13.10
2022-10-01T01:49:31.107Z,13.20
2022-10-01T01:53:33.018Z,13.20
2022-10-01T01:57:42.228Z,13.20
2022-10-01T02:01:44.885Z,13.30
2022-10-01T02:06:21.326Z,13.20
2022-10-01T02:10:32.002Z,13.10
2022-10-01T02:14:46.681Z,13.20
2022-10-01T02:19:05.307Z,13.10
2022-10-01T02:23:19.783Z,13.10
2022-10-01T02:27:26.224Z,13.20
2022-10-01T02:31:30.409Z,13.10
2022-10-01T02:35:35.531Z,13.00
2022-10-01T02:39:40.946Z,13.00
2022-10-01T02:43:53.749Z,12.90
2022-10-01T02:48:02.186Z,13.00
2022-10-01T02:52:31.289Z,13.00
2022-10-01T02:56:56.028Z,13.10
2022-10-01T03:00:58.171Z,13.20
2022-10-01T03:05:00.422Z,13.10
2022-10-01T03:09:02.489Z,13.10
2022-10-01T03:13:07.446Z,13.00
2022-10-01T03:17:09.774Z,12.70
2022-10-01T03:21:11.976Z,12.60
2022-10-01T03:25:15.107Z,12.70
2022-10-01T03:29:17.002Z,12.80
2022-10-01T03:33:18.818Z,12.70
2022-10-01T03:37:20.656Z,12.40
2022-10-01T03:41:22.854Z,12.30
2022-10-01T03:45:24.802Z,12.30
2022-10-01T03:49:27.402Z,12.40
2022-10-01T03:53:31.380Z,12.60
2022-10-01T03:57:33.208Z,12.70
2022-10-01T04:01:35.372Z,12.50
2022-10-01T04:05:37.476Z,12.40
2022-10-01T04:09:39.286Z,12.40
2022-10-01T04:13:41.247Z,12.30
2022-10-01T04:17:45.979Z,12.40
2022-10-01T04:21:48.079Z,12.40
2022-10-01T04:25:50.084Z,12.50
2022-10-01T04:29:51.888Z,12.50
2022-10-01T04:33:55.545Z,12.50
2022-10-01T04:38:06.248Z,12.70
2022-10-01T04:42:08.216Z,12.60
2022-10-01T04:46:10.041Z,12.60
2022-10-01T04:50:11.882Z,12.40
2022-10-01T04:54:13.676Z,12.40
2022-10-01T04:58:15.514Z,12.40
2022-10-01T05:02:18.144Z,12.40
2022-10-01T05:06:20.068Z,12.30
2022-10-01T05:10:23.098Z,12.40
2022-10-01T05:14:24.929Z,12.50
2022-10-01T05:18:26.836Z,12.60
2022-10-01T05:22:28.842Z,12.70
2022-10-01T05:26:32.111Z,12.60
2022-10-01T05:30:34.817Z,12.60
2022-10-01T05:34:36.971Z,12.60
2022-10-01T05:38:38.924Z,12.60
2022-10-01T05:42:47.059Z,12.60
2022-10-01T05:46:49.092Z,12.70
2022-10-01T05:50:51.800Z,12.70
2022-10-01T05:54:53.740Z,12.90
2022-10-01T05:58:55.571Z,13.00
2022-10-01T06:03:01.517Z,13.20
2022-10-01T06:07:03.716Z,13.10
2022-10-01T06:11:05.959Z,13.00
2022-10-01T06:15:08.173Z,13.10
2022-10-01T06:19:10.219Z,13.20
2022-10-01T06:23:13.484Z,13.30
2022-10-01T06:27:15.312Z,13.30
2022-10-01T06:31:18.304Z,13.40
2022-10-01T06:35:23.192Z,13.50
2022-10-01T06:39:25.029Z,13.50
2022-10-01T06:43:29.160Z,13.70
2022-10-01T06:47:31.057Z,13.80
2022-10-01T06:51:51.498Z,13.80
2022-10-01T06:55:53.433Z,13.60
2022-10-01T06:59:55.571Z,13.50
2022-10-01T07:03:59.164Z,13.50
2022-10-01T07:08:01.292Z,13.60
2022-10-01T07:12:03.458Z,13.70
2022-10-01T07:16:05.637Z,13.80
2022-10-01T07:20:07.992Z,13.80
2022-10-01T07:24:09.910Z,13.90
2022-10-01T07:28:18.085Z,14.10
2022-10-01T07:32:20.739Z,14.20
2022-10-01T07:36:22.567Z,14.00
2022-10-01T07:40:24.470Z,13.90
2022-10-01T07:44:29.566Z,14.20
2022-10-01T07:48:31.474Z,14.20
2022-10-01T07:52:33.649Z,14.30
2022-10-01T07:56:35.553Z,14.40
2022-10-01T08:00:37.957Z,14.50
2022-10-01T08:04:58.513Z,14.70
2022-10-01T08:09:00.363Z,14.80
2022-10-01T08:13:17.489Z,14.70
2022-10-01T08:17:19.342Z,14.90
2022-10-01T08:21:21.238Z,15.00
2022-10-01T08:25:23.075Z,15.20
2022-10-01T08:29:24.927Z,15.40
2022-10-01T08:33:26.809Z,15.60
2022-10-01T08:37:30.032Z,16.00
2022-10-01T08:41:43.738Z,16.00
2022-10-01T08:45:51.197Z,16.30
2022-10-01T08:49:59.349Z,16.70
2022-10-01T08:54:18.808Z,16.70
2022-10-01T08:58:29.195Z,16.50
2022-10-01T09:02:34.254Z,16.60
2022-10-01T09:06:37.825Z,16.80
2022-10-01T09:11:11.980Z,16.90
2022-10-01T09:15:34.512Z,17.10
2022-10-01T09:20:00.382Z,17.10
2022-10-01T09:24:16.126Z,16.90
2022-10-01T09:28:22.833Z,17.10
2022-10-01T09:32:36.309Z,17.00
2022-10-01T09:36:47.049Z,17.10
2022-10-01T09:40:55.075Z,16.90
2022-10-01T09:45:00.645Z,16.90
2022-10-01T09:49:31.312Z,16.80
2022-10-01T09:53:38.323Z,17.20
2022-10-01T09:58:08.562Z,17.10
2022-10-01T10:02:25.817Z,17.20
2022-10-01T10:06:30.328Z,17.30
2022-10-01T10:10:35.855Z,17.50
2022-10-01T10:14:41.282Z,17.40
2022-10-01T10:18:48.692Z,17.30
2022-10-01T10:22:50.608Z,17.30
2022-10-01T10:26:58.593Z,17.30
2022-10-01T10:31:00.404Z,17.20
2022-10-01T10:35:05.840Z,17.10
2022-10-01T10:39:23.313Z,17.20
2022-10-01T10:43:30.534Z,17.40
2022-10-01T10:47:43.082Z,17.20
2022-10-01T10:51:49.369Z,17.10
2022-10-01T10:55:55.305Z,17.10
2022-10-01T11:00:24.155Z,17.20
2022-10-01T11:04:42.962Z,17.10
2022-10-01T11:08:57.212Z,17.30
2022-10-01T11:13:08.004Z,17.60
2022-10-01T11:17:42.198Z,17.50
2022-10-01T11:22:07.014Z,17.50
2022-10-01T11:26:22.083Z,17.80
2022-10-01T11:30:37.061Z,18.00
2022-10-01T11:34:54.003Z,18.20
2022-10-01T11:39:06.750Z,18.00
2022-10-01T11:43:27.614Z,18.10
2022-10-01T11:47:38.161Z,18.10
2022-10-01T11:51:46.542Z,18.00
2022-10-01T11:56:15.248Z,17.90
2022-10-01T12:00:17.161Z,17.90
2022-10-01T12:04:27.892Z,17.70
2022-10-01T12:08:34.928Z,17.60
2022-10-01T12:12:47.390Z,17.60
2022-10-01T12:16:57.066Z,17.10
2022-10-01T12:21:02.639Z,16.90
2022-10-01T12:25:04.951Z,16.80
2022-10-01T12:29:18.717Z,16.70
2022-10-01T12:33:44.899Z,16.40
2022-10-01T12:38:24.296Z,16.40
2022-10-01T12:42:41.176Z,16.30
2022-10-01T12:47:05.939Z,16.10
2022-10-01T12:51:22.557Z,16.20
2022-10-01T12:55:34.362Z,16.10
2022-10-01T12:59:47.885Z,16.10
2022-10-01T13:04:03.047Z,16.20
2022-10-01T13:08:14.520Z,16.30
2022-10-01T13:12:46.424Z,16.30
2022-10-01T13:17:01.873Z,16.30
2022-10-01T13:21:21.111Z,16.20
2022-10-01T13:25:41.432Z,16.20
2022-10-01T13:30:05.000Z,16.30
2022-10-01T13:34:33.438Z,16.10
2022-10-01T13:38:38.379Z,15.90
2022-10-01T13:42:46.822Z,15.90
2022-10-01T13:47:02.207Z,15.90
2022-10-01T13:51:09.286Z,15.90
2022-10-01T13:55:29.062Z,15.70
2022-10-01T13:59:36.403Z,15.70
2022-10-01T14:03:46.748Z,15.70
2022-10-01T14:07:50.494Z,15.60
2022-10-01T14:12:23.910Z,15.70
2022-10-01T14:16:25.801Z,15.70
2022-10-01T14:20:45.641Z,15.50
2022-10-01T14:25:09.572Z,15.40
2022-10-01T14:29:30.191Z,15.20
2022-10-01T14:33:55.328Z,15.10
2022-10-01T14:38:03.247Z,15.20
2022-10-01T14:42:16.467Z,15.10
2022-10-01T14:46:19.526Z,15.00
2022-10-01T14:50:21.529Z,15.00
2022-10-01T14:54:24.359Z,15.00
2022-10-01T14:58:31.498Z,15.00
2022-10-01T15:02:33.574Z,15.00
2022-10-01T15:06:42.435Z,15.10
2022-10-01T15:10:50.164Z,14.90
2022-10-01T15:14:54.555Z,14.80
2022-10-01T15:19:09.382Z,14.90
2022-10-01T15:23:12.270Z,14.90
2022-10-01T15:27:17.713Z,14.90
2022-10-01T15:31:21.999Z,14.80
2022-10-01T15:35:25.055Z,14.60
2022-10-01T15:39:31.751Z,14.70
2022-10-01T15:43:37.967Z,14.70
2022-10-01T15:47:49.452Z,14.40
2022-10-01T15:52:15.841Z,14.30
2022-10-01T15:56:23.932Z,14.40
2022-10-01T16:00:27.375Z,14.40
2022-10-01T16:04:29.346Z,14.40
2022-10-01T16:08:35.987Z,14.20
2022-10-01T16:12:38.096Z,14.00
2022-10-01T16:16:39.973Z,13.80
2022-10-01T16:20:45.601Z,13.90
2022-10-01T16:24:58.474Z,13.80
2022-10-01T16:29:01.752Z,13.80
2022-10-01T16:33:06.195Z,13.70
2022-10-01T16:37:09.379Z,13.50
2022-10-01T16:41:13.014Z,13.40
2022-10-01T16:45:17.963Z,13.40
2022-10-01T16:49:19.799Z,13.40
2022-10-01T16:53:23.054Z,13.50
2022-10-01T16:57:24.929Z,14.10
2022-10-01T17:01:27.382Z,13.30
2022-10-01T17:05:35.626Z,13.30
2022-10-01T17:09:37.526Z,13.30
2022-10-01T17:13:39.491Z,13.30
2022-10-01T17:17:41.813Z,13.20
2022-10-01T17:21:43.725Z,13.00
2022-10-01T17:25:46.622Z,13.00
2022-10-01T17:29:48.514Z,13.00
2022-10-01T17:33:51.446Z,12.90
2022-10-01T17:37:53.346Z,12.90
2022-10-01T17:41:55.170Z,13.00
2022-10-01T17:45:59.969Z,13.00
2022-10-01T17:50:03.054Z,13.10
2022-10-01T17:54:05.023Z,12.60
2022-10-01T17:58:06.980Z,13.00
2022-10-01T18:02:36.688Z,12.90
2022-10-01T18:06:33.643Z,12.80
2022-10-01T18:10:35.689Z,12.80
2022-10-01T18:14:37.540Z,12.90
2022-10-01T18:23:01.993Z,13.00
2022-10-01T18:27:03.920Z,13.00
2022-10-01T18:31:11.740Z,12.90
2022-10-01T18:35:43.757Z,12.90
2022-10-01T18:39:53.281Z,13.10
2022-10-01T18:43:55.117Z,13.00
2022-10-01T18:48:22.263Z,12.90
2022-10-01T18:52:46.842Z,12.80
2022-10-01T18:57:01.254Z,12.80
2022-10-01T19:01:44.992Z,13.00
2022-10-01T19:05:59.008Z,12.90
2022-10-01T19:10:16.833Z,13.00
2022-10-01T19:14:46.241Z,13.00
2022-10-01T19:18:56.834Z,13.00
2022-10-01T19:23:04.357Z,12.90
2022-10-01T19:27:33.346Z,13.00
2022-10-01T19:31:41.659Z,13.00
2022-10-01T19:35:50.078Z,12.90
2022-10-01T19:39:55.713Z,12.90
2022-10-01T19:44:06.774Z,12.90
2022-10-01T19:48:18.592Z,12.80
2022-10-01T19:52:22.719Z,12.70
2022-10-01T19:56:28.037Z,12.90
2022-10-01T20:00:32.361Z,12.80
2022-10-01T20:04:40.648Z,12.60
2022-10-01T20:08:55.857Z,12.40
2022-10-01T20:13:15.547Z,12.40
2022-10-01T20:17:42.898Z,12.40
2022-10-01T20:22:23.946Z,12.50
2022-10-01T20:26:46.126Z,11.90
2022-10-01T20:31:07.647Z,12.50
2022-10-01T20:35:21.482Z,12.30
2022-10-01T20:39:31.129Z,12.30
2022-10-01T20:43:46.038Z,12.30
2022-10-01T20:47:55.187Z,12.30
2022-10-01T20:52:16.440Z,12.40
2022-10-01T20:56:23.283Z,12.30
2022-10-01T21:00:27.291Z,12.40
2022-10-01T21:04:34.775Z,12.40
2022-10-01T21:08:39.909Z,12.40
2022-10-01T21:12:49.440Z,12.40
2022-10-01T21:16:51.218Z,12.30
2022-10-01T21:21:06.291Z,12.20
2022-10-01T21:25:26.640Z,12.40
2022-10-01T21:29:59.339Z,12.30
2022-10-01T21:34:23.019Z,12.40
2022-10-01T21:38:33.302Z,12.40
2022-10-01T21:43:01.393Z,12.10
2022-10-01T21:47:22.684Z,12.30
2022-10-01T21:51:33.979Z,12.20
2022-10-01T21:55:52.054Z,12.30
2022-10-01T22:00:13.299Z,12.30
2022-10-01T22:05:02.492Z,12.20
2022-10-01T22:09:16.860Z,10.70
2022-10-01T22:13:35.950Z,12.30
2022-10-01T22:17:39.593Z,12.40
2022-10-01T22:21:44.847Z,12.50
2022-10-01T22:25:57.397Z,12.50
2022-10-01T22:30:13.134Z,12.40
2022-10-01T22:34:20.440Z,12.40
2022-10-01T22:38:55.053Z,12.30
2022-10-01T22:43:11.664Z,12.40
2022-10-01T22:47:40.716Z,12.30
2022-10-01T22:51:54.750Z,12.30
2022-10-01T22:55:57.858Z,12.20
2022-10-01T23:00:09.618Z,12.10
2022-10-01T23:04:39.362Z,12.30
2022-10-01T23:08:50.088Z,12.40
2022-10-01T23:13:11.822Z,12.40
2022-10-01T23:17:39.498Z,12.50
2022-10-01T23:21:54.390Z,12.50
2022-10-01T23:26:25.462Z,12.40
2022-10-01T23:30:56.944Z,13.50
2022-10-01T23:35:06.878Z,12.30
2022-10-01T23:39:26.496Z,12.30
2022-10-01T23:43:37.181Z,12.30
2022-10-01T23:47:59.492Z,13.70
2022-10-01T23:52:15.432Z,12.20
2022-10-01T23:56:50.845Z,12.20
